createdAt,value
2022-07-25T00:01:47.679Z,100480.56
2022-07-25T00:04:14.850Z,100488.38
2022-07-25T00:06:43.110Z,100481.41
2022-07-25T00:09:10.601Z,100467.41
2022-07-25T00:11:38.186Z,100470.09
2022-07-25T00:14:06.559Z,100457.94
2022-07-25T00:16:33.707Z,100453.16
2022-07-25T00:19:01.114Z,100453.75
2022-07-25T00:21:28.056Z,100460.72
2022-07-25T00:23:54.910Z,100452.44
2022-07-25T00:26:21.913Z,100447.31
2022-07-25T00:28:48.739Z,100444.63
2022-07-25T00:31:15.730Z,100430.16
2022-07-25T00:33:42.808Z,100437.66
2022-07-25T00:36:09.943Z,100435.44
2022-07-25T00:38:36.878Z,100426.03
2022-07-25T00:41:04.581Z,100426.25
2022-07-25T00:43:31.739Z,100427.88
2022-07-25T00:45:59.519Z,100427.88
2022-07-25T00:48:31.231Z,100447.94
2022-07-25T00:50:59.190Z,100444.03
2022-07-25T00:53:26.268Z,100434.03
2022-07-25T00:55:53.526Z,100427.50
2022-07-25T00:58:20.461Z,100425.88
2022-07-25T01:00:48.029Z,100428.34
2022-07-25T01:03:15.758Z,100431.00
2022-07-25T01:05:43.224Z,100424.25
2022-07-25T01:08:10.479Z,100418.34
2022-07-25T01:10:37.959Z,100422.19
2022-07-25T01:13:05.456Z,100404.72
2022-07-25T01:15:32.443Z,100406.00
2022-07-25T01:17:59.645Z,100406.84
2022-07-25T01:20:28.574Z,100402.50
2022-07-25T01:22:56.634Z,100413.25
2022-07-25T01:25:24.750Z,100418.13
2022-07-25T01:27:55.798Z,100407.41
2022-07-25T01:30:23.720Z,100401.25
2022-07-25T01:32:51.116Z,100399.59
2022-07-25T01:35:18.158Z,100418.84
2022-07-25T01:37:45.420Z,100414.53
2022-07-25T01:40:14.234Z,100412.69
2022-07-25T01:42:41.966Z,100405.38
2022-07-25T01:45:09.569Z,100406.41
2022-07-25T01:47:36.679Z,100410.38
2022-07-25T01:50:04.853Z,100408.81
2022-07-25T01:52:31.791Z,100414.09
2022-07-25T01:54:58.841Z,100408.63
2022-07-25T01:57:30.824Z,100419.59
2022-07-25T01:59:58.263Z,100400.84
2022-07-25T02:02:25.393Z,100406.75
2022-07-25T02:04:53.632Z,100394.44
2022-07-25T02:07:20.879Z,100393.63
2022-07-25T02:09:47.713Z,100392.22
2022-07-25T02:12:14.590Z,100399.44
2022-07-25T02:14:41.633Z,100409.03
2022-07-25T02:17:08.652Z,100403.88
2022-07-25T02:19:36.583Z,100395.72
2022-07-25T02:22:03.808Z,100393.84
2022-07-25T02:24:30.870Z,100394.91
2022-07-25T02:26:58.039Z,100410.88
2022-07-25T02:29:25.470Z,100397.28
2022-07-25T02:31:53.298Z,100399.03
2022-07-25T02:34:20.290Z,100398.91
2022-07-25T02:36:47.425Z,100394.03
2022-07-25T02:39:14.436Z,100384.88
2022-07-25T02:41:41.287Z,100382.06
2022-07-25T02:44:08.371Z,100377.28
2022-07-25T02:46:35.681Z,100378.69
2022-07-25T02:49:02.967Z,100387.06
2022-07-25T02:51:30.118Z,100393.56
2022-07-25T02:53:58.459Z,100394.75
2022-07-25T02:56:29.799Z,100400.09
2022-07-25T02:58:57.545Z,100399.28
2022-07-25T03:01:24.512Z,100394.16
2022-07-25T03:03:51.636Z,100388.22
2022-07-25T03:06:18.630Z,100394.75
2022-07-25T03:08:45.535Z,100395.06
2022-07-25T03:11:13.891Z,100390.75
2022-07-25T03:13:40.789Z,100384.59
2022-07-25T03:16:08.282Z,100389.13
2022-07-25T03:18:35.234Z,100388.31
2022-07-25T03:21:02.453Z,100384.84
2022-07-25T03:23:31.146Z,100391.25
2022-07-25T03:25:58.156Z,100379.50
2022-07-25T03:28:25.406Z,100389.50
2022-07-25T03:30:53.390Z,100383.91
2022-07-25T03:33:20.290Z,100382.28
2022-07-25T03:35:47.274Z,100383.09
2022-07-25T03:38:14.455Z,100378.78
2022-07-25T03:40:41.300Z,100376.00
2022-07-25T03:43:08.184Z,100364.47
2022-07-25T03:45:35.428Z,100371.94
2022-07-25T03:48:02.753Z,100371.13
2022-07-25T03:50:29.674Z,100368.47
2022-07-25T03:52:56.519Z,100367.38
2022-07-25T03:55:23.513Z,100374.38
2022-07-25T03:57:51.086Z,100369.84
2022-07-25T04:00:18.135Z,100359.94
2022-07-25T04:02:45.227Z,100370.66
2022-07-25T04:05:12.439Z,100370.66
2022-07-25T04:07:39.738Z,100373.56
2022-07-25T04:10:08.011Z,100370.66
2022-07-25T04:12:35.251Z,100373.91
2022-07-25T04:15:02.333Z,100372.28
2022-07-25T04:17:29.343Z,100368.19
2022-07-25T04:19:57.571Z,100369.50
2022-07-25T04:22:24.663Z,100363.09
2022-07-25T04:24:58.726Z,100357.75
2022-07-25T04:27:25.938Z,100364.97
2022-07-25T04:29:53.032Z,100356.13
2022-07-25T04:32:23.261Z,100361.47
2022-07-25T04:34:58.934Z,100364.97
2022-07-25T04:37:26.080Z,100359.84
2022-07-25T04:39:53.109Z,100345.41
2022-07-25T04:42:20.116Z,100339.47
2022-07-25T04:44:55.733Z,100342.13
2022-07-25T04:47:22.879Z,100351.22
2022-07-25T04:49:50.053Z,100363.44
2022-07-25T04:52:17.021Z,100359.41
2022-07-25T04:54:44.222Z,100361.47
2022-07-25T04:57:11.270Z,100352.41
2022-07-25T04:59:38.300Z,100352.63
2022-07-25T05:02:05.524Z,100354.50
2022-07-25T05:04:32.641Z,100359.28
2022-07-25T05:07:02.463Z,100354.63
2022-07-25T05:09:29.407Z,100354.88
2022-07-25T05:11:56.572Z,100354.88
2022-07-25T05:14:23.934Z,100356.50
2022-07-25T05:16:50.978Z,100349.03
2022-07-25T05:19:17.877Z,100359.75
2022-07-25T05:21:44.675Z,100351.25
2022-07-25T05:24:12.234Z,100353.69
2022-07-25T05:26:39.130Z,100351.25
2022-07-25T05:29:06.125Z,100360.56
2022-07-25T05:31:32.942Z,100362.56
2022-07-25T05:33:59.805Z,100355.56
2022-07-25T05:36:26.638Z,100354.75
2022-07-25T05:38:54.360Z,100366.03
2022-07-25T05:41:21.326Z,100362.09
2022-07-25T05:43:49.014Z,100360.44
2022-07-25T05:46:19.235Z,100367.31
2022-07-25T05:48:46.353Z,100362.56
2022-07-25T05:51:13.340Z,100363.00
2022-07-25T05:53:40.286Z,100361.84
2022-07-25T05:56:07.481Z,100357.53
2022-07-25T05:58:34.346Z,100366.16
2022-07-25T06:01:01.299Z,100359.28
2022-07-25T06:03:28.237Z,100349.97
2022-07-25T06:05:56.874Z,100347.88
2022-07-25T06:08:24.155Z,100351.03
2022-07-25T06:10:51.828Z,100349.97
2022-07-25T06:13:20.762Z,100353.72
2022-07-25T06:15:47.798Z,100359.88
2022-07-25T06:18:15.367Z,100367.44
2022-07-25T06:20:42.786Z,100362.56
2022-07-25T06:23:10.213Z,100369.78
2022-07-25T06:25:37.390Z,100358.59
2022-07-25T06:28:04.705Z,100363.13
2022-07-25T06:30:32.051Z,100367.22
2022-07-25T06:32:59.201Z,100363.81
2022-07-25T06:35:26.626Z,100374.75
2022-07-25T06:37:54.039Z,100381.75
2022-07-25T06:40:21.082Z,100379.78
2022-07-25T06:42:48.309Z,100381.31
2022-07-25T06:45:15.922Z,100378.63
2022-07-25T06:47:44.374Z,100385.84
2022-07-25T06:50:13.891Z,100386.66
2022-07-25T06:52:41.996Z,100381.03
2022-07-25T06:55:10.705Z,100385.69
2022-07-25T06:57:38.084Z,100382.78
2022-07-25T07:00:09.827Z,100384.53
2022-07-25T07:02:47.989Z,100383.97
2022-07-25T07:05:15.012Z,100394.69
2022-07-25T07:07:47.449Z,100388.25
2022-07-25T07:10:14.588Z,100390.13
2022-07-25T07:12:41.574Z,100390.25
2022-07-25T07:15:09.388Z,100389.66
2022-07-25T07:17:36.966Z,100394.78
2022-07-25T07:20:07.467Z,100399.09
2022-07-25T07:22:47.686Z,100397.25
2022-07-25T07:25:18.803Z,100396.53
2022-07-25T07:27:47.864Z,100396.06
2022-07-25T07:30:16.790Z,100393.72
2022-07-25T07:32:47.360Z,100391.03
2022-07-25T07:35:19.463Z,100404.44
2022-07-25T07:37:46.992Z,100391.63
2022-07-25T07:40:18.383Z,100399.78
2022-07-25T07:42:49.965Z,100398.25
2022-07-25T07:45:22.944Z,100416.28
2022-07-25T07:47:52.850Z,100414.44
2022-07-25T07:50:22.659Z,100416.56
2022-07-25T07:52:50.830Z,100415.47
2022-07-25T07:55:37.060Z,100422.13
2022-07-25T07:58:04.896Z,100409.31
2022-07-25T08:00:32.137Z,100408.38
2022-07-25T08:03:00.600Z,100398.47
2022-07-25T08:05:36.418Z,100400.00
2022-07-25T08:08:05.790Z,100406.19
2022-07-25T08:10:36.639Z,100395.81
2022-07-25T08:13:16.429Z,100390.13
2022-07-25T08:15:46.063Z,100399.66
2022-07-25T08:18:17.616Z,100409.09
2022-07-25T08:20:46.482Z,100408.16
2022-07-25T08:23:14.004Z,100406.28
2022-07-25T08:25:41.641Z,100404.63
2022-07-25T08:28:09.451Z,100415.78
2022-07-25T08:30:38.323Z,100407.63
2022-07-25T08:33:11.714Z,100421.59
2022-07-25T08:35:40.354Z,100425.44
2022-07-25T08:38:09.060Z,100421.59
2022-07-25T08:40:36.075Z,100430.22
2022-07-25T08:43:05.071Z,100428.59
2022-07-25T08:45:35.117Z,100430.13
2022-07-25T08:48:02.184Z,100435.47
2022-07-25T08:50:30.456Z,100432.31
2022-07-25T08:53:16.541Z,100438.38
2022-07-25T08:55:46.351Z,100443.63
2022-07-25T08:58:15.961Z,100443.63
2022-07-25T09:00:44.072Z,100444.91
2022-07-25T09:03:12.346Z,100446.31
2022-07-25T09:05:40.226Z,100442.56
2022-07-25T09:08:10.548Z,100431.38
2022-07-25T09:10:39.444Z,100438.69
2022-07-25T09:13:14.590Z,100448.25
2022-07-25T09:15:50.250Z,100440.63
2022-07-25T09:18:20.163Z,100454.13
2022-07-25T09:20:58.850Z,100459.81
2022-07-25T09:23:37.397Z,100445.97
2022-07-25T09:26:09.875Z,100455.16
2022-07-25T09:28:47.468Z,100453.03
2022-07-25T09:31:17.029Z,100460.03
2022-07-25T09:33:56.845Z,100467.59
2022-07-25T09:36:24.302Z,100463.63
2022-07-25T09:38:55.591Z,100466.16
2022-07-25T09:41:23.629Z,100471.34
2022-07-25T09:43:50.861Z,100468.22
2022-07-25T09:46:17.749Z,100472.03
2022-07-25T09:48:45.635Z,100456.38
2022-07-25T09:51:12.586Z,100468.84
2022-07-25T09:53:41.006Z,100468.59
2022-07-25T09:56:08.689Z,100472.44
2022-07-25T09:58:36.205Z,100467.38
2022-07-25T10:01:06.349Z,100474.63
2022-07-25T10:03:50.696Z,100474.28
2022-07-25T10:06:22.520Z,100478.38
2022-07-25T10:08:50.928Z,100472.19
2022-07-25T10:11:25.994Z,100481.06
2022-07-25T10:13:57.329Z,100478.38
2022-07-25T10:16:26.385Z,100471.94
2022-07-25T10:18:58.687Z,100485.94
2022-07-25T10:21:28.576Z,100480.56
2022-07-25T10:24:06.651Z,100482.44
2022-07-25T10:26:36.619Z,100491.53
2022-07-25T10:29:10.073Z,100495.44
2022-07-25T10:31:39.990Z,100498.59
2022-07-25T10:34:10.614Z,100495.69
2022-07-25T10:36:46.328Z,100508.63
2022-07-25T10:39:16.105Z,100507.91
2022-07-25T10:41:54.954Z,100515.22
2022-07-25T10:44:22.225Z,100505.03
2022-07-25T10:46:50.813Z,100514.72
2022-07-25T10:49:19.191Z,100516.59
2022-07-25T10:51:56.760Z,100538.06
2022-07-25T10:54:23.886Z,100526.19
2022-07-25T10:56:58.242Z,100523.31
2022-07-25T10:59:29.312Z,100522.41
2022-07-25T11:01:56.219Z,100523.81
2022-07-25T11:04:24.123Z,100528.09
2022-07-25T11:06:51.403Z,100539.75
2022-07-25T11:09:27.328Z,100526.44
2022-07-25T11:11:59.489Z,100531.78
2022-07-25T11:14:36.485Z,100533.91
2022-07-25T11:17:18.870Z,100537.06
2022-07-25T11:20:01.423Z,100532.19
2022-07-25T11:22:30.229Z,100537.25
2022-07-25T11:25:03.640Z,100551.47
2022-07-25T11:27:33.313Z,100548.19
2022-07-25T11:30:15.578Z,100554.06
2022-07-25T11:32:44.780Z,100549.97
2022-07-25T11:35:14.246Z,100549.84
2022-07-25T11:37:43.616Z,100553.25
2022-07-25T11:40:11.962Z,100561.06
2022-07-25T11:42:45.319Z,100565.63
2022-07-25T11:45:20.826Z,100564.78
2022-07-25T11:48:05.106Z,100569.56
2022-07-25T11:50:35.499Z,100570.88
2022-07-25T11:53:04.887Z,100574.59
2022-07-25T11:55:40.473Z,100566.56
2022-07-25T11:58:07.742Z,100560.38
2022-07-25T12:00:40.369Z,100559.56
2022-07-25T12:03:08.959Z,100557.59
2022-07-25T12:05:36.473Z,100557.00
2022-07-25T12:08:20.258Z,100560.59
2022-07-25T12:10:51.703Z,100550.78
2022-07-25T12:13:27.314Z,100554.88
2022-07-25T12:15:56.504Z,100550.66
2022-07-25T12:18:23.558Z,100552.66
2022-07-25T12:20:50.711Z,100547.88
2022-07-25T12:23:17.902Z,100556.84
2022-07-25T12:25:46.627Z,100553.06
2022-07-25T12:28:14.703Z,100546.19
2022-07-25T12:30:43.934Z,100548.97
2022-07-25T12:33:15.181Z,100550.22
2022-07-25T12:35:43.496Z,100543.16
2022-07-25T12:38:11.543Z,100550.88
2022-07-25T12:40:39.313Z,100544.06
2022-07-25T12:43:06.840Z,100531.16
2022-07-25T12:45:33.969Z,100538.56
2022-07-25T12:48:00.974Z,100542.88
2022-07-25T12:50:27.855Z,100551.09
2022-07-25T12:52:55.215Z,100542.81
2022-07-25T12:55:22.266Z,100539.13
2022-07-25T12:57:50.453Z,100547.84
2022-07-25T13:00:20.101Z,100538.53
2022-07-25T13:02:48.455Z,100538.38
2022-07-25T13:05:15.395Z,100547.91
2022-07-25T13:07:42.227Z,100539.97
2022-07-25T13:10:09.676Z,100535.78
2022-07-25T13:12:37.605Z,100538.03
2022-07-25T13:15:11.568Z,100555.56
2022-07-25T13:17:40.654Z,100551.84
2022-07-25T13:20:08.609Z,100555.00
2022-07-25T13:22:35.711Z,100565.91
2022-07-25T13:25:06.127Z,100548.34
2022-07-25T13:27:32.984Z,100558.06
2022-07-25T13:29:59.985Z,100552.97
2022-07-25T13:32:28.809Z,100550.13
2022-07-25T13:35:02.881Z,100551.59
2022-07-25T13:37:30.339Z,100547.66
2022-07-25T13:39:59.403Z,100551.22
2022-07-25T13:42:26.564Z,100554.22
2022-07-25T13:45:00.955Z,100556.69
2022-07-25T13:47:30.385Z,100567.22
2022-07-25T13:49:57.653Z,100561.44
2022-07-25T13:52:24.513Z,100568.75
2022-07-25T13:55:03.139Z,100579.25
2022-07-25T13:57:33.921Z,100574.59
2022-07-25T14:00:01.132Z,100579.69
2022-07-25T14:02:30.843Z,100583.94
2022-07-25T14:05:04.355Z,100580.94
2022-07-25T14:07:31.336Z,100592.69
2022-07-25T14:09:59.311Z,100600.72
2022-07-25T14:12:26.181Z,100602.00
2022-07-25T14:15:02.232Z,100602.50
2022-07-25T14:17:30.493Z,100601.47
2022-07-25T14:19:58.017Z,100605.50
2022-07-25T14:22:24.802Z,100616.53
2022-07-25T14:25:01.466Z,100622.47
2022-07-25T14:27:28.505Z,100619.78
2022-07-25T14:29:55.580Z,100625.66
2022-07-25T14:32:23.616Z,100627.16
2022-07-25T14:35:07.023Z,100631.34
2022-07-25T14:37:34.916Z,100630.97
2022-07-25T14:40:03.073Z,100615.00
2022-07-25T14:42:31.535Z,100623.25
2022-07-25T14:45:07.459Z,100627.47
2022-07-25T14:47:35.407Z,100629.09
2022-07-25T14:50:02.251Z,100626.16
2022-07-25T14:52:29.147Z,100628.03
2022-07-25T14:55:03.490Z,100625.84
2022-07-25T14:57:30.306Z,100632.84
2022-07-25T14:59:57.178Z,100634.22
2022-07-25T15:02:24.285Z,100637.25
2022-07-25T15:05:00.419Z,100629.25
2022-07-25T15:07:27.645Z,100634.16
2022-07-25T15:09:54.596Z,100628.34
2022-07-25T15:12:22.057Z,100628.41
2022-07-25T15:15:01.999Z,100636.25
2022-07-25T15:17:29.504Z,100640.00
2022-07-25T15:19:56.948Z,100647.25
2022-07-25T15:22:23.998Z,100654.41
2022-07-25T15:25:34.870Z,100653.28
2022-07-25T15:27:44.539Z,100646.69
2022-07-25T15:30:11.962Z,100661.69
2022-07-25T15:32:40.529Z,100663.22
2022-07-25T15:35:08.557Z,100657.03
2022-07-25T15:37:35.754Z,100658.94
2022-07-25T15:40:03.422Z,100668.59
2022-07-25T15:42:30.269Z,100663.50
2022-07-25T15:45:30.218Z,100659.97
2022-07-25T15:47:50.705Z,100660.81
2022-07-25T15:50:18.945Z,100660.81
2022-07-25T15:52:46.909Z,100658.44
2022-07-25T15:55:13.766Z,100660.16
2022-07-25T15:57:40.822Z,100663.16
2022-07-25T16:00:09.693Z,100657.03
2022-07-25T16:02:36.589Z,100661.19
2022-07-25T16:05:04.735Z,100662.91
2022-07-25T16:07:31.640Z,100661.13
2022-07-25T16:09:59.051Z,100658.19
2022-07-25T16:12:28.642Z,100671.41
2022-07-25T16:15:01.724Z,100670.81
2022-07-25T16:17:28.929Z,100671.63
2022-07-25T16:19:56.113Z,100659.00
2022-07-25T16:22:23.478Z,100674.56
2022-07-25T16:25:04.730Z,100671.88
2022-07-25T16:27:31.812Z,100672.69
2022-07-25T16:30:00.268Z,100676.44
2022-07-25T16:32:28.855Z,100678.88
2022-07-25T16:35:07.222Z,100674.09
2022-07-25T16:37:34.542Z,100684.25
2022-07-25T16:40:01.421Z,100684.50
2022-07-25T16:42:28.301Z,100688.00
2022-07-25T16:45:00.440Z,100688.81
2022-07-25T16:47:27.825Z,100691.28
2022-07-25T16:49:55.023Z,100704.72
2022-07-25T16:52:23.128Z,100695.34
2022-07-25T16:55:04.044Z,100702.63
2022-07-25T16:57:34.028Z,100705.53
2022-07-25T17:00:01.147Z,100706.59
2022-07-25T17:02:29.853Z,100706.03
2022-07-25T17:05:02.592Z,100704.88
2022-07-25T17:07:29.633Z,100710.03
2022-07-25T17:09:56.474Z,100714.00
2022-07-25T17:12:23.349Z,100707.03
2022-07-25T17:14:56.442Z,100723.59
2022-07-25T17:17:23.430Z,100723.06
2022-07-25T17:19:50.702Z,100726.22
2022-07-25T17:22:17.975Z,100727.19
2022-07-25T17:24:53.023Z,100722.81
2022-07-25T17:27:20.125Z,100730.50
2022-07-25T17:29:47.341Z,100729.38
2022-07-25T17:32:16.501Z,100729.88
2022-07-25T17:34:43.548Z,100737.34
2022-07-25T17:37:10.491Z,100733.63
2022-07-25T17:39:38.111Z,100736.31
2022-07-25T17:42:07.628Z,100745.19
2022-07-25T17:44:35.178Z,100754.63
2022-07-25T17:47:03.517Z,100751.38
2022-07-25T17:49:30.837Z,100758.03
2022-07-25T17:51:57.731Z,100766.00
2022-07-25T17:54:24.776Z,100768.97
2022-07-25T17:56:52.341Z,100761.94
2022-07-25T17:59:19.671Z,100767.56
2022-07-25T18:01:46.682Z,100781.50
2022-07-25T18:04:14.729Z,100774.94
2022-07-25T18:06:41.975Z,100784.31
2022-07-25T18:09:08.929Z,100788.28
2022-07-25T18:11:35.831Z,100782.69
2022-07-25T18:14:02.861Z,100787.00
2022-07-25T18:16:29.794Z,100791.56
2022-07-25T18:18:56.770Z,100788.03
2022-07-25T18:21:24.689Z,100787.13
2022-07-25T18:23:51.986Z,100800.47
2022-07-25T18:26:18.871Z,100802.81
2022-07-25T18:28:45.812Z,100804.91
2022-07-25T18:31:12.819Z,100804.69
2022-07-25T18:33:39.693Z,100800.63
2022-07-25T18:36:07.808Z,100810.75
2022-07-25T18:38:35.717Z,100813.56
2022-07-25T18:41:27.605Z,100813.81
2022-07-25T18:43:51.824Z,100820.25
2022-07-25T18:46:19.782Z,100819.97
2022-07-25T18:48:47.780Z,100818.72
2022-07-25T18:51:14.790Z,100818.72
2022-07-25T18:53:45.957Z,100821.63
2022-07-25T18:56:14.763Z,100825.94
2022-07-25T18:58:41.633Z,100834.81
2022-07-25T19:01:09.566Z,100827.59
2022-07-25T19:03:37.888Z,100835.88
2022-07-25T19:06:05.493Z,100842.78
2022-07-25T19:08:32.835Z,100841.13
2022-07-25T19:11:00.017Z,100840.81
2022-07-25T19:13:48.279Z,100841.63
2022-07-25T19:16:14.457Z,100848.03
2022-07-25T19:18:42.073Z,100851.78
2022-07-25T19:21:09.096Z,100863.56
2022-07-25T19:23:36.210Z,100861.34
2022-07-25T19:26:03.241Z,100865.69
2022-07-25T19:28:30.275Z,100874.78
2022-07-25T19:30:57.769Z,100878.50
2022-07-25T19:33:25.273Z,100885.41
2022-07-25T19:36:01.847Z,100898.72
2022-07-25T19:38:28.822Z,100894.28
2022-07-25T19:40:56.224Z,100896.50
2022-07-25T19:43:23.272Z,100906.88
2022-07-25T19:45:50.465Z,100913.53
2022-07-25T19:48:18.244Z,100911.06
2022-07-25T19:50:45.934Z,100921.47
2022-07-25T19:53:13.048Z,100925.19
2022-07-25T19:55:40.218Z,100934.53
2022-07-25T19:58:08.831Z,100926.13
2022-07-25T20:00:36.203Z,100934.63
2022-07-25T20:03:04.560Z,100941.88
2022-07-25T20:05:31.869Z,100951.78
2022-07-25T20:07:59.011Z,100947.94
2022-07-25T20:10:26.201Z,100951.88
2022-07-25T20:12:54.994Z,100960.34
2022-07-25T20:15:25.183Z,100965.13
2022-07-25T20:17:52.276Z,100964.34
2022-07-25T20:20:19.227Z,100973.16
2022-07-25T20:22:48.080Z,100982.44
2022-07-25T20:25:15.283Z,100985.81
2022-07-25T20:27:42.320Z,100998.69
2022-07-25T20:30:09.909Z,101001.50
2022-07-25T20:32:37.158Z,101008.44
2022-07-25T20:35:05.026Z,101012.44
2022-07-25T20:37:31.900Z,101016.47
2022-07-25T20:39:58.722Z,101013.28
2022-07-25T20:42:25.586Z,101025.50
2022-07-25T20:44:53.697Z,101029.28
2022-07-25T20:47:20.661Z,101025.88
2022-07-25T20:49:47.540Z,101034.53
2022-07-25T20:52:14.586Z,101030.34
2022-07-25T20:54:43.040Z,101035.34
2022-07-25T20:57:11.706Z,101033.69
2022-07-25T20:59:38.583Z,101038.22
2022-07-25T21:02:05.862Z,101041.56
2022-07-25T21:04:32.801Z,101051.09
2022-07-25T21:06:59.638Z,101050.28
2022-07-25T21:09:29.598Z,101043.72
2022-07-25T21:11:59.524Z,101054.66
2022-07-25T21:14:27.105Z,101056.56
2022-07-25T21:16:54.358Z,101059.88
2022-07-25T21:19:21.249Z,101069.63
2022-07-25T21:21:48.758Z,101068.00
2022-07-25T21:24:15.801Z,101078.91
2022-07-25T21:26:43.185Z,101076.03
2022-07-25T21:29:10.595Z,101082.41
2022-07-25T21:31:37.986Z,101090.66
2022-07-25T21:34:05.218Z,101090.06
2022-07-25T21:36:32.246Z,101091.31
2022-07-25T21:38:59.055Z,101091.09
2022-07-25T21:41:25.908Z,101090.09
2022-07-25T21:43:52.756Z,101091.56
2022-07-25T21:46:19.715Z,101087.47
2022-07-25T21:49:05.520Z,101097.78
2022-07-25T21:51:40.456Z,101098.41
2022-07-25T21:54:08.114Z,101098.59
2022-07-25T21:56:35.035Z,101101.28
2022-07-25T21:59:02.116Z,101107.66
2022-07-25T22:01:29.064Z,101104.41
2022-07-25T22:03:56.160Z,101109.13
2022-07-25T22:06:23.004Z,101124.16
2022-07-25T22:08:49.847Z,101135.06
2022-07-25T22:11:38.595Z,101123.59
2022-07-25T22:14:03.733Z,101128.34
2022-07-25T22:16:30.709Z,101142.16
2022-07-25T22:18:57.725Z,101149.38
2022-07-25T22:21:24.624Z,101152.94
2022-07-25T22:23:51.497Z,101146.97
2022-07-25T22:26:20.456Z,101158.31
2022-07-25T22:28:48.387Z,101160.59
2022-07-25T22:31:15.547Z,101160.59
2022-07-25T22:33:42.532Z,101159.78
2022-07-25T22:36:09.632Z,101160.41
2022-07-25T22:38:36.548Z,101160.22
2022-07-25T22:41:03.490Z,101160.63
2022-07-25T22:43:56.677Z,101177.88
2022-07-25T22:46:17.449Z,101178.72
2022-07-25T22:48:44.363Z,101171.34
2022-07-25T22:51:12.094Z,101169.69
2022-07-25T22:53:38.985Z,101174.63
2022-07-25T22:56:06.184Z,101167.00
2022-07-25T22:58:33.038Z,101166.41
2022-07-25T23:00:59.973Z,101173.19
2022-07-25T23:03:29.741Z,101177.91
2022-07-25T23:06:00.110Z,101178.34
2022-07-25T23:08:27.101Z,101179.97
2022-07-25T23:10:54.104Z,101177.50
2022-07-25T23:13:21.013Z,101179.53
2022-07-25T23:15:49.466Z,101183.66
2022-07-25T23:18:17.412Z,101184.25
2022-07-25T23:20:44.257Z,101178.53
2022-07-25T23:23:11.175Z,101180.38
2022-07-25T23:25:38.065Z,101181.78
2022-07-25T23:28:05.318Z,101173.00
2022-07-25T23:30:37.998Z,101177.09
2022-07-25T23:33:07.408Z,101186.94
2022-07-25T23:35:34.839Z,101183.88
2022-07-25T23:38:01.968Z,101187.78
2022-07-25T23:40:28.850Z,101188.38
2022-07-25T23:42:55.727Z,101197.03
2022-07-25T23:45:24.282Z,101190.44
2022-07-25T23:47:54.995Z,101186.75
2022-07-25T23:50:22.953Z,101190.03
2022-07-25T23:52:50.073Z,101193.72
2022-07-25T23:55:16.943Z,101196.56
2022-07-25T23:57:43.910Z,101200.69
